Airport View

Enter AWOS ICAO identifier for current METAR.

ex. KFNL

KGDJ 011235Z AUTO 03006KT 10SM CLR 19/10 A3017 RMK AO2 T01860100

1 Oct 2020 12:56

Frequency: 118.925

Phone: 817-573-7514

Other Area AWOS: KCPT - KSEP - KMWL - KFWS

TAF KNFW 0107/0207 VRB06KT 9999 SKC QNH3001INS BECMG 0110/0112 04010KT 9999 SKC QNH3009INS AUTOMATED SENSOR METWATCH 0107 TIL 0111 T16/0112Z T28/0120Z FN00230